Main page
Satellite images 10-day forecastsClimateMarine weather Cyclones Lightning AirportsFAQ Newsletter About
Weather : Europe Africa North America South America Asia Australia-Oceania Others
Languages Contact

Podgorica, Montenegro

Podgorica Airport

latitude: 42-26N, longitude: 019-17E, elevation: 53 m


METAR: LYPG 270130Z 06004KT 9999 BKN080 14/10 Q1004 NOSIG
TAF: LYPG 262300Z 2700/2724 36005KT 9999 SCT040 BKN090 TX17/2712Z TN11/2705Z TEMPO 2709/2724 3000 RA BR

Time: 02:54 (01:54 UTC)

Current weather observation

The report was made 24 minutes ago, at 01:30 UTC
Wind 4 kt from the East/Northeast
Temperature 14°C
Humidity 77%
Pressure 1004 hPa
Visibility 10 km or more
Broken clouds at a height of 8000 ft

Change units

Forecast

The report was made 2 hours and 54 minutes ago, at 23:00 UTC
Forecast valid from 27 at 00 UTC to 27 at 24 UTC
Wind 5 kt from the North
Visibility 10 km or more
Scattered clouds at a height of 4000 ft
Broken clouds at a height of 9000 ft
Temporary
from 27 at 09 UTC to 27 at 24 UTC
Visibility: 3000 m
rain, mist
The information on this site is subject to a disclaimer
Weather : Europe Africa North America South America Asia Australia-Oceania Others
Satellite images 10-day forecastsClimateMarine weather Cyclones Lightning AirportsFAQ Languages Contact Newsletter About